createdAt,value
2023-01-17T00:02:24.505Z,33.20
2023-01-17T00:07:37.303Z,31.90
2023-01-17T00:12:32.088Z,34.53
2023-01-17T00:17:25.280Z,34.00
2023-01-17T00:22:42.298Z,33.90
2023-01-17T00:27:33.920Z,32.33
2023-01-17T00:32:25.580Z,32.55
2023-01-17T00:37:17.203Z,34.40
2023-01-17T00:42:08.843Z,34.15
2023-01-17T00:47:18.922Z,33.15
2023-01-17T00:52:29.350Z,36.40
2023-01-17T00:57:39.928Z,34.47
2023-01-17T01:02:51.057Z,34.55
2023-01-17T01:08:01.687Z,34.92
2023-01-17T01:13:11.654Z,33.80
2023-01-17T01:18:27.091Z,32.97
2023-01-17T01:23:37.333Z,32.58
2023-01-17T01:28:47.248Z,33.30
2023-01-17T01:33:39.009Z,33.83
2023-01-17T01:38:32.185Z,30.80
2023-01-17T01:43:51.544Z,34.92
2023-01-17T01:48:57.638Z,34.25
2023-01-17T01:53:52.401Z,34.67
2023-01-17T01:58:47.652Z,32.30
2023-01-17T02:03:41.259Z,35.47
2023-01-17T02:08:33.551Z,34.95
2023-01-17T02:13:25.294Z,35.05
2023-01-17T02:18:33.512Z,35.83
2023-01-17T02:23:45.231Z,35.23
2023-01-17T02:28:39.868Z,34.88
2023-01-17T02:33:50.053Z,35.40
2023-01-17T02:38:49.962Z,33.25
2023-01-17T02:43:41.762Z,31.02
2023-01-17T02:48:36.706Z,32.58
2023-01-17T02:53:58.650Z,33.70
2023-01-17T02:59:24.191Z,32.22
2023-01-17T03:04:24.857Z,31.90
2023-01-17T03:09:17.950Z,31.67
2023-01-17T03:14:09.723Z,31.73
2023-01-17T03:19:01.702Z,31.23
2023-01-17T03:23:53.349Z,32.08
2023-01-17T03:28:45.041Z,29.20
2023-01-17T03:33:36.759Z,30.08
2023-01-17T03:38:29.380Z,29.35
2023-01-17T03:43:21.355Z,31.58
2023-01-17T03:48:13.482Z,33.28
2023-01-17T03:53:05.198Z,32.58
2023-01-17T03:57:56.875Z,30.83
2023-01-17T04:02:48.659Z,31.27
2023-01-17T04:07:41.154Z,32.53
2023-01-17T04:12:32.842Z,29.73
2023-01-17T04:17:24.949Z,29.40
2023-01-17T04:22:16.647Z,30.98
2023-01-17T04:27:09.154Z,29.83
2023-01-17T04:32:00.822Z,29.95
2023-01-17T04:36:52.507Z,27.35
2023-01-17T04:41:44.376Z,28.92
2023-01-17T04:46:36.062Z,29.63
2023-01-17T04:51:27.860Z,29.85
2023-01-17T04:56:19.905Z,29.45
2023-01-17T05:01:11.728Z,27.88
2023-01-17T05:06:03.530Z,29.80
2023-01-17T05:10:55.211Z,30.38
2023-01-17T05:15:47.136Z,29.33
2023-01-17T05:20:38.918Z,28.88
2023-01-17T05:25:32.266Z,27.75
2023-01-17T05:30:24.069Z,28.35
2023-01-17T05:35:19.700Z,29.13
2023-01-17T05:40:12.231Z,28.17
2023-01-17T05:45:04.242Z,29.25
2023-01-17T05:49:55.924Z,28.10
2023-01-17T05:54:47.761Z,27.92
2023-01-17T05:59:39.534Z,29.83
2023-01-17T06:04:31.268Z,28.70
2023-01-17T06:09:23.126Z,29.42
2023-01-17T06:14:14.831Z,29.83
2023-01-17T06:19:06.479Z,31.27
2023-01-17T06:23:58.174Z,30.35
2023-01-17T06:28:49.855Z,29.52
2023-01-17T06:33:41.542Z,31.20
2023-01-17T06:38:33.414Z,31.27
2023-01-17T06:43:25.163Z,30.10
2023-01-17T06:48:16.857Z,32.65
2023-01-17T06:53:08.581Z,29.83
2023-01-17T06:58:00.724Z,31.05
2023-01-17T07:02:52.853Z,33.13
2023-01-17T07:07:45.845Z,33.72
2023-01-17T07:12:37.498Z,34.10
2023-01-17T07:17:29.179Z,34.78
2023-01-17T07:22:20.887Z,36.72
2023-01-17T07:27:12.578Z,32.50
2023-01-17T07:32:04.355Z,33.20
2023-01-17T07:36:55.990Z,35.83
2023-01-17T07:41:47.858Z,34.60
2023-01-17T07:46:40.231Z,34.20
2023-01-17T07:51:32.150Z,36.05
2023-01-17T07:56:24.010Z,38.83
2023-01-17T08:01:16.671Z,36.38
2023-01-17T08:06:20.877Z,36.50
2023-01-17T08:11:13.205Z,36.10
2023-01-17T08:16:05.490Z,39.13
2023-01-17T08:20:57.322Z,35.88
2023-01-17T08:25:49.031Z,37.35
2023-01-17T08:30:40.718Z,37.00
2023-01-17T08:35:33.122Z,35.58
2023-01-17T08:40:25.976Z,35.90
2023-01-17T08:45:17.665Z,36.67
2023-01-17T08:50:09.821Z,36.03
2023-01-17T08:55:01.817Z,37.53
2023-01-17T08:59:53.490Z,36.15
2023-01-17T09:04:49.864Z,35.20
2023-01-17T09:09:41.975Z,35.13
2023-01-17T09:14:34.916Z,35.80
2023-01-17T09:19:27.071Z,36.10
2023-01-17T09:24:18.852Z,35.17
2023-01-17T09:29:10.558Z,38.63
2023-01-17T09:34:02.268Z,40.83
2023-01-17T09:38:58.634Z,40.40
2023-01-17T09:43:53.778Z,36.75
2023-01-17T09:48:46.382Z,37.40
2023-01-17T09:53:41.726Z,35.75
2023-01-17T09:58:56.624Z,38.53
2023-01-17T10:04:25.906Z,39.70
2023-01-17T10:09:29.538Z,38.85
2023-01-17T10:14:51.422Z,40.67
2023-01-17T10:19:46.125Z,37.38
2023-01-17T10:25:01.654Z,34.50
2023-01-17T10:29:54.269Z,34.90
2023-01-17T10:34:50.629Z,33.97
2023-01-17T10:39:49.114Z,37.75
2023-01-17T10:49:54.638Z,35.38
2023-01-17T10:55:14.582Z,36.42
2023-01-17T11:00:23.102Z,35.60
2023-01-17T11:05:23.017Z,33.63
2023-01-17T11:10:39.817Z,30.65
2023-01-17T11:15:35.114Z,29.52
2023-01-17T11:20:39.238Z,28.90
2023-01-17T11:25:34.089Z,28.05
2023-01-17T11:30:29.482Z,27.73
2023-01-17T11:35:30.397Z,28.63
2023-01-17T11:40:27.608Z,27.13
2023-01-17T11:45:32.110Z,28.60
2023-01-17T11:50:27.369Z,26.90
2023-01-17T11:55:22.962Z,27.85
2023-01-17T12:00:27.507Z,27.65
2023-01-17T12:05:51.515Z,28.25
2023-01-17T12:10:43.182Z,26.38
2023-01-17T12:16:00.344Z,25.73
2023-01-17T12:21:20.623Z,27.73
2023-01-17T12:26:26.274Z,27.45
2023-01-17T12:31:32.607Z,25.35
2023-01-17T12:36:27.554Z,27.05
2023-01-17T12:41:26.591Z,24.30
2023-01-17T12:46:38.522Z,23.25
2023-01-17T12:51:38.451Z,21.73
2023-01-17T12:56:35.873Z,20.83
2023-01-17T13:01:39.851Z,19.83
2023-01-17T13:06:48.538Z,18.45
2023-01-17T13:11:46.659Z,18.48
2023-01-17T13:16:50.098Z,18.75
2023-01-17T13:21:41.866Z,19.40
2023-01-17T13:26:52.319Z,16.90
2023-01-17T13:31:52.767Z,17.70
2023-01-17T13:37:06.306Z,20.33
2023-01-17T13:42:12.974Z,18.00
2023-01-17T13:47:11.324Z,18.05
2023-01-17T13:52:05.173Z,17.67
2023-01-17T13:57:39.928Z,14.85
2023-01-17T14:02:31.587Z,14.48
2023-01-17T14:07:26.486Z,14.30
2023-01-17T14:12:28.038Z,10.95
2023-01-17T14:17:25.890Z,12.18
2023-01-17T14:22:20.531Z,7.77
2023-01-17T14:27:19.663Z,7.50
2023-01-17T14:32:23.684Z,7.68
2023-01-17T14:37:27.312Z,10.27
2023-01-17T14:42:22.531Z,7.63
2023-01-17T14:47:15.735Z,6.85
2023-01-17T14:52:15.958Z,7.93
2023-01-17T14:57:39.953Z,6.35
2023-01-17T15:02:32.132Z,6.20
2023-01-17T15:07:25.944Z,7.30
2023-01-17T15:12:19.139Z,6.72
2023-01-17T15:17:18.324Z,6.75
2023-01-17T15:22:10.548Z,14.00
2023-01-17T15:27:02.385Z,13.38
2023-01-17T15:31:58.247Z,12.70
2023-01-17T15:36:50.172Z,9.93
2023-01-17T15:41:42.025Z,7.40
2023-01-17T15:46:42.721Z,6.20
2023-01-17T15:51:38.859Z,5.60
2023-01-17T15:56:32.704Z,5.97
2023-01-17T16:01:27.312Z,6.65
2023-01-17T16:06:45.679Z,5.53
2023-01-17T16:11:37.369Z,5.83
2023-01-17T16:16:29.167Z,5.38
2023-01-17T16:21:26.943Z,5.18
2023-01-17T16:26:20.089Z,5.83
2023-01-17T16:31:12.005Z,5.10
2023-01-17T16:36:04.018Z,4.68
2023-01-17T16:40:55.804Z,5.88
2023-01-17T16:45:50.399Z,8.27
2023-01-17T16:50:50.802Z,6.75
2023-01-17T16:55:42.935Z,7.57
2023-01-17T17:00:34.553Z,6.82
2023-01-17T17:05:26.715Z,8.45
2023-01-17T17:10:20.210Z,9.05
2023-01-17T17:15:13.036Z,10.93
2023-01-17T17:20:06.124Z,8.40
2023-01-17T17:24:57.894Z,9.55
2023-01-17T17:29:49.521Z,8.07
2023-01-17T17:34:41.174Z,8.88
2023-01-17T17:39:32.823Z,11.70
2023-01-17T17:44:24.618Z,9.02
2023-01-17T17:49:17.194Z,8.68
2023-01-17T17:54:11.431Z,8.60
2023-01-17T17:59:05.012Z,8.85
2023-01-17T18:04:01.388Z,11.10
2023-01-17T18:08:53.723Z,11.05
2023-01-17T18:13:50.587Z,10.32
2023-01-17T18:18:45.749Z,11.38
2023-01-17T18:23:38.810Z,11.07
2023-01-17T18:28:30.547Z,11.05
2023-01-17T18:33:22.271Z,11.18
2023-01-17T18:38:14.051Z,10.27
2023-01-17T18:43:05.695Z,8.93
2023-01-17T18:47:57.394Z,9.40
2023-01-17T18:52:49.132Z,12.43
2023-01-17T18:57:40.878Z,11.70
2023-01-17T19:02:32.505Z,13.15
2023-01-17T19:07:29.062Z,13.68
2023-01-17T19:12:20.850Z,13.40
2023-01-17T19:17:12.559Z,11.38
2023-01-17T19:22:04.282Z,12.57
2023-01-17T19:26:56.529Z,13.60
2023-01-17T19:31:48.253Z,14.00
2023-01-17T19:36:40.038Z,14.43
2023-01-17T19:41:32.834Z,20.95
2023-01-17T19:46:26.173Z,30.00
2023-01-17T19:51:18.042Z,17.70
2023-01-17T19:56:18.194Z,19.52
2023-01-17T20:01:18.926Z,16.73
2023-01-17T20:06:12.681Z,16.55
2023-01-17T20:11:10.751Z,13.23
2023-01-17T20:16:07.465Z,12.65
2023-01-17T20:21:08.191Z,12.18
2023-01-17T20:26:00.648Z,12.60
2023-01-17T20:30:53.543Z,18.05
2023-01-17T20:35:45.216Z,13.55
2023-01-17T20:40:36.935Z,13.52
2023-01-17T20:45:28.873Z,12.55
2023-01-17T20:50:21.622Z,12.55
2023-01-17T20:55:13.602Z,13.45
2023-01-17T21:00:06.598Z,12.57
2023-01-17T21:04:58.787Z,12.27
2023-01-17T21:09:50.455Z,12.00
2023-01-17T21:14:43.030Z,12.07
2023-01-17T21:19:35.108Z,13.98
2023-01-17T21:24:28.636Z,14.23
2023-01-17T21:29:20.380Z,14.18
2023-01-17T21:34:13.865Z,12.98
2023-01-17T21:39:12.455Z,15.90
2023-01-17T21:48:59.914Z,14.65
2023-01-17T21:53:51.586Z,14.55
2023-01-17T21:58:43.349Z,14.57
2023-01-17T22:03:35.966Z,14.20
2023-01-17T22:08:35.367Z,15.23
2023-01-17T22:13:32.320Z,14.75
2023-01-17T22:18:24.033Z,13.02
2023-01-17T22:23:15.736Z,14.48
2023-01-17T22:31:37.942Z,13.70
2023-01-17T22:37:16.158Z,15.07
2023-01-17T22:42:08.419Z,13.30
2023-01-17T22:47:00.299Z,13.43
2023-01-17T22:51:51.985Z,14.52
2023-01-17T22:56:43.675Z,12.95
2023-01-17T23:01:35.350Z,13.13
2023-01-17T23:06:32.767Z,13.25
2023-01-17T23:11:42.912Z,13.15
2023-01-17T23:16:53.650Z,12.60
2023-01-17T23:22:03.928Z,12.43
2023-01-17T23:27:13.934Z,13.85
2023-01-17T23:32:06.006Z,12.90
2023-01-17T23:36:57.682Z,14.00
2023-01-17T23:42:07.951Z,13.25
2023-01-17T23:47:00.233Z,14.30
2023-01-17T23:51:52.992Z,12.93
2023-01-17T23:56:44.727Z,13.88
